createdAt,value
2023-05-21T00:00:04.935Z,128.83
2023-05-21T00:01:04.953Z,128.88
2023-05-21T00:02:04.984Z,131.29
2023-05-21T00:03:05.123Z,133.97
2023-05-21T00:04:05.101Z,137.42
2023-05-21T00:05:05.096Z,135.76
2023-05-21T00:06:05.129Z,134.61
2023-05-21T00:07:05.169Z,137.89
2023-05-21T00:08:05.199Z,136.42
2023-05-21T00:09:05.275Z,133.51
2023-05-21T00:10:05.326Z,132.09
2023-05-21T00:11:05.363Z,132.49
2023-05-21T00:12:05.404Z,131.34
2023-05-21T00:13:05.462Z,126.70
2023-05-21T00:14:05.518Z,126.82
2023-05-21T00:15:05.560Z,128.50
2023-05-21T00:16:05.618Z,127.42
2023-05-21T00:17:05.621Z,127.37
2023-05-21T00:18:05.734Z,127.12
2023-05-21T00:19:05.723Z,128.89
2023-05-21T00:20:05.747Z,132.11
2023-05-21T00:21:05.774Z,135.10
2023-05-21T00:22:05.829Z,135.61
2023-05-21T00:23:05.842Z,138.63
2023-05-21T00:24:05.975Z,141.50
2023-05-21T00:25:05.892Z,145.38
2023-05-21T00:26:05.902Z,149.35
2023-05-21T00:27:05.957Z,151.21
2023-05-21T00:28:05.989Z,152.54
2023-05-21T00:29:06.026Z,153.23
2023-05-21T00:30:06.090Z,153.44
2023-05-21T00:31:06.089Z,152.42
2023-05-21T00:32:06.311Z,151.78
2023-05-21T00:33:06.235Z,149.77
2023-05-21T00:34:06.184Z,149.31
2023-05-21T00:35:06.240Z,149.30
2023-05-21T00:36:06.302Z,149.05
2023-05-21T00:37:06.314Z,149.18
2023-05-21T00:38:06.329Z,151.20
2023-05-21T00:39:06.413Z,152.53
2023-05-21T00:40:06.486Z,153.43
2023-05-21T00:41:06.474Z,155.06
2023-05-21T00:42:06.546Z,155.73
2023-05-21T00:43:06.553Z,159.51
2023-05-21T00:44:06.582Z,161.30
2023-05-21T00:45:06.640Z,162.60
2023-05-21T00:46:06.725Z,165.13
2023-05-21T00:47:06.681Z,164.57
2023-05-21T00:48:06.810Z,164.71
2023-05-21T00:49:06.761Z,164.89
2023-05-21T00:50:06.805Z,168.90
2023-05-21T00:51:06.810Z,169.87
2023-05-21T00:52:06.852Z,173.29
2023-05-21T00:53:06.881Z,175.41
2023-05-21T00:54:06.893Z,174.16
2023-05-21T00:55:06.943Z,173.34
2023-05-21T00:56:06.987Z,176.47
2023-05-21T00:57:07.024Z,174.70
2023-05-21T00:58:07.084Z,176.75
2023-05-21T00:59:07.140Z,176.40
2023-05-21T01:00:07.168Z,176.81
2023-05-21T01:01:07.332Z,175.82
2023-05-21T01:02:07.282Z,179.97
2023-05-21T01:03:07.386Z,178.88
2023-05-21T01:04:07.306Z,180.07
2023-05-21T01:05:07.366Z,179.71
2023-05-21T01:06:07.390Z,180.03
2023-05-21T01:07:07.432Z,179.49
2023-05-21T01:08:07.531Z,181.99
2023-05-21T01:09:07.509Z,184.44
2023-05-21T01:10:07.564Z,185.24
2023-05-21T01:11:07.563Z,187.55
2023-05-21T01:12:07.615Z,187.19
2023-05-21T01:13:07.664Z,188.84
2023-05-21T01:14:07.696Z,188.77
2023-05-21T01:15:07.723Z,192.70
2023-05-21T01:16:07.771Z,193.20
2023-05-21T01:17:07.859Z,194.12
2023-05-21T01:18:07.946Z,195.33
2023-05-21T01:19:07.990Z,196.99
2023-05-21T01:20:09.315Z,198.46
2023-05-21T01:21:07.964Z,198.47
2023-05-21T01:22:08.082Z,197.70
2023-05-21T01:23:08.045Z,200.97
2023-05-21T01:24:08.090Z,197.00
2023-05-21T01:25:08.143Z,197.62
2023-05-21T01:26:08.191Z,193.30
2023-05-21T01:27:08.192Z,191.73
2023-05-21T01:28:08.190Z,190.46
2023-05-21T01:29:08.217Z,190.40
2023-05-21T01:30:08.268Z,189.50
2023-05-21T01:31:08.288Z,186.88
2023-05-21T01:32:08.307Z,190.59
2023-05-21T01:33:08.414Z,190.64
2023-05-21T01:34:08.378Z,188.15
2023-05-21T01:35:08.382Z,191.58
2023-05-21T01:36:08.411Z,189.95
2023-05-21T01:37:08.468Z,192.34
2023-05-21T01:38:08.476Z,195.23
2023-05-21T01:39:08.531Z,199.36
2023-05-21T01:40:08.576Z,201.52
2023-05-21T01:41:08.607Z,203.64
2023-05-21T01:42:08.627Z,205.54
2023-05-21T01:43:08.705Z,206.51
2023-05-21T01:44:08.717Z,202.46
2023-05-21T01:45:08.737Z,197.31
2023-05-21T01:46:08.788Z,196.72
2023-05-21T01:47:08.790Z,195.06
2023-05-21T01:48:08.823Z,194.19
2023-05-21T01:49:08.845Z,188.81
2023-05-21T01:50:08.874Z,190.51
2023-05-21T01:51:08.885Z,188.29
2023-05-21T01:52:08.930Z,189.71
2023-05-21T01:53:08.954Z,188.47
2023-05-21T01:54:08.959Z,192.42
2023-05-21T01:55:09.012Z,193.76
2023-05-21T01:56:09.058Z,194.53
2023-05-21T01:57:09.099Z,195.83
2023-05-21T01:58:09.138Z,197.17
2023-05-21T01:59:09.280Z,199.22
2023-05-21T02:00:09.201Z,202.92
2023-05-21T02:01:09.254Z,206.45
2023-05-21T02:02:09.437Z,205.66
2023-05-21T02:03:09.463Z,207.14
2023-05-21T02:04:09.630Z,209.03
2023-05-21T02:05:09.376Z,208.46
2023-05-21T02:06:09.362Z,209.49
2023-05-21T02:07:09.370Z,210.46
2023-05-21T02:08:09.410Z,211.42
2023-05-21T02:09:09.492Z,211.75
2023-05-21T02:10:09.507Z,212.23
2023-05-21T02:11:09.526Z,211.57
2023-05-21T02:12:09.532Z,212.78
2023-05-21T02:13:09.574Z,210.61
2023-05-21T02:14:09.629Z,207.89
2023-05-21T02:15:09.690Z,204.68
2023-05-21T02:16:09.779Z,204.36
2023-05-21T02:17:09.797Z,203.43
2023-05-21T02:18:09.956Z,206.17
2023-05-21T02:19:09.894Z,206.21
2023-05-21T02:20:09.896Z,208.37
2023-05-21T02:21:09.865Z,209.33
2023-05-21T02:22:09.912Z,211.38
2023-05-21T02:23:09.916Z,210.59
2023-05-21T02:24:09.908Z,215.45
2023-05-21T02:25:09.934Z,214.84
2023-05-21T02:26:09.955Z,214.58
2023-05-21T02:27:09.949Z,214.96
2023-05-21T02:28:09.961Z,217.57
2023-05-21T02:29:09.955Z,218.14
2023-05-21T02:30:09.997Z,216.61
2023-05-21T02:31:10.054Z,218.02
2023-05-21T02:32:09.996Z,219.51
2023-05-21T02:33:10.054Z,220.09
2023-05-21T02:34:10.076Z,220.25
2023-05-21T02:35:10.065Z,220.82
2023-05-21T02:36:10.053Z,222.45
2023-05-21T02:37:10.053Z,220.65
2023-05-21T02:38:10.069Z,221.86
2023-05-21T02:39:10.107Z,221.50
2023-05-21T02:40:10.232Z,221.36
2023-05-21T02:41:10.116Z,221.49
2023-05-21T02:42:10.143Z,221.37
2023-05-21T02:43:10.168Z,223.84
2023-05-21T02:44:10.170Z,223.31
2023-05-21T02:45:10.212Z,221.77
2023-05-21T02:46:10.288Z,222.15
2023-05-21T02:47:10.185Z,224.27
2023-05-21T02:48:10.254Z,224.27
2023-05-21T02:49:10.198Z,222.26
2023-05-21T02:50:10.224Z,222.12
2023-05-21T02:51:10.240Z,221.48
2023-05-21T02:52:10.225Z,219.79
2023-05-21T02:53:10.222Z,218.03
2023-05-21T02:54:10.236Z,216.74
2023-05-21T02:55:10.341Z,214.77
2023-05-21T02:56:10.369Z,217.53
2023-05-21T02:57:10.403Z,218.04
2023-05-21T02:58:10.436Z,219.19
2023-05-21T02:59:10.482Z,220.69
2023-05-21T03:00:10.535Z,217.71
2023-05-21T03:01:10.595Z,216.79
2023-05-21T03:02:10.645Z,214.86
2023-05-21T03:03:10.762Z,214.15
2023-05-21T03:04:10.726Z,214.09
2023-05-21T03:05:10.792Z,214.58
2023-05-21T03:06:10.834Z,215.78
2023-05-21T03:07:10.889Z,215.30
2023-05-21T03:08:11.039Z,217.19
2023-05-21T03:09:11.101Z,215.66
2023-05-21T03:10:11.041Z,214.81
2023-05-21T03:11:11.112Z,216.43
2023-05-21T03:12:11.131Z,216.50
2023-05-21T03:13:11.191Z,216.43
2023-05-21T03:14:11.184Z,218.91
2023-05-21T03:15:11.199Z,217.38
2023-05-21T03:16:11.275Z,217.49
2023-05-21T03:17:11.224Z,215.61
2023-05-21T03:18:11.387Z,215.69
2023-05-21T03:19:11.284Z,216.53
2023-05-21T03:20:11.256Z,217.13
2023-05-21T03:21:11.250Z,216.24
2023-05-21T03:22:11.295Z,218.01
2023-05-21T03:23:11.540Z,219.63
2023-05-21T03:24:11.383Z,218.50
2023-05-21T03:25:11.322Z,220.51
2023-05-21T03:26:11.319Z,221.08
2023-05-21T03:27:11.350Z,221.83
2023-05-21T03:28:11.498Z,221.87
2023-05-21T03:29:11.440Z,224.74
2023-05-21T03:30:11.502Z,228.02
2023-05-21T03:31:11.537Z,233.42
2023-05-21T03:32:11.608Z,234.55
2023-05-21T03:33:11.650Z,237.49
2023-05-21T03:34:11.618Z,238.42
2023-05-21T03:35:11.660Z,241.15
2023-05-21T03:36:11.627Z,238.83
2023-05-21T03:37:11.635Z,238.18
2023-05-21T03:38:11.668Z,234.84
2023-05-21T03:39:11.657Z,233.89
2023-05-21T03:40:11.701Z,234.82
2023-05-21T03:41:11.697Z,231.26
2023-05-21T03:42:11.718Z,231.51
2023-05-21T03:43:11.724Z,229.07
2023-05-21T03:44:11.733Z,228.89
2023-05-21T03:45:11.819Z,230.14
2023-05-21T03:46:11.837Z,231.32
2023-05-21T03:47:11.829Z,233.89
2023-05-21T03:48:11.852Z,233.99
2023-05-21T03:49:11.862Z,234.28
2023-05-21T03:50:11.857Z,235.11
2023-05-21T03:51:11.878Z,235.76
2023-05-21T03:52:11.880Z,235.15
2023-05-21T03:53:11.903Z,235.03
2023-05-21T03:54:11.914Z,232.61
2023-05-21T03:55:11.919Z,234.37
2023-05-21T03:56:11.930Z,234.26
2023-05-21T03:57:11.936Z,235.15
2023-05-21T03:58:11.961Z,234.99
2023-05-21T03:59:11.962Z,233.82
2023-05-21T04:00:12.171Z,236.54
2023-05-21T04:01:11.982Z,235.59
2023-05-21T04:02:12.045Z,236.06
2023-05-21T04:03:12.303Z,236.59
2023-05-21T04:04:12.282Z,233.86
2023-05-21T04:05:12.341Z,233.53
2023-05-21T04:06:12.185Z,235.88
2023-05-21T04:07:12.359Z,234.52
2023-05-21T04:08:12.270Z,233.09
2023-05-21T04:09:12.308Z,233.98
2023-05-21T04:10:12.388Z,233.21
2023-05-21T04:11:12.419Z,233.84
2023-05-21T04:12:12.412Z,232.06
2023-05-21T04:13:12.440Z,233.21
2023-05-21T04:14:12.440Z,232.41
2023-05-21T04:15:12.447Z,232.63
2023-05-21T04:16:12.497Z,231.21
2023-05-21T04:17:12.457Z,231.51
2023-05-21T04:18:12.468Z,233.99
2023-05-21T04:19:12.524Z,236.70
2023-05-21T04:20:12.481Z,238.19
2023-05-21T04:21:12.483Z,240.70
2023-05-21T04:22:12.541Z,241.99
2023-05-21T04:23:12.545Z,243.27
2023-05-21T04:24:12.585Z,246.61
2023-05-21T04:25:12.658Z,248.08
2023-05-21T04:26:12.716Z,249.64
2023-05-21T04:27:12.723Z,248.56
2023-05-21T04:28:12.782Z,243.32
2023-05-21T04:29:12.814Z,246.19
2023-05-21T04:30:12.876Z,245.01
2023-05-21T04:31:13.020Z,243.28
2023-05-21T04:32:12.938Z,242.71
2023-05-21T04:33:12.977Z,243.12
2023-05-21T04:34:12.977Z,244.76
2023-05-21T04:35:12.989Z,248.03
2023-05-21T04:36:13.001Z,248.99
2023-05-21T04:37:13.019Z,248.32
2023-05-21T04:38:13.021Z,249.06
2023-05-21T04:39:13.040Z,246.35
2023-05-21T04:40:13.067Z,246.01
2023-05-21T04:41:13.127Z,245.81
2023-05-21T04:42:13.200Z,246.33
2023-05-21T04:43:13.162Z,241.00
2023-05-21T04:44:13.173Z,240.93
2023-05-21T04:45:13.188Z,240.51
2023-05-21T04:46:13.250Z,239.42
2023-05-21T04:47:13.216Z,238.25
2023-05-21T04:48:13.207Z,236.43
2023-05-21T04:49:13.242Z,236.82
2023-05-21T04:50:13.242Z,236.58
2023-05-21T04:51:13.316Z,237.37
2023-05-21T04:52:13.360Z,233.48
2023-05-21T04:53:13.404Z,234.41
2023-05-21T04:54:13.476Z,229.59
2023-05-21T04:55:13.513Z,226.84
2023-05-21T04:56:13.574Z,227.51
2023-05-21T04:57:13.629Z,229.13
2023-05-21T04:58:13.702Z,227.73
2023-05-21T04:59:13.748Z,228.88
2023-05-21T05:00:13.772Z,231.71
2023-05-21T05:01:13.877Z,233.19
2023-05-21T05:02:13.877Z,232.32
2023-05-21T05:03:14.035Z,232.15
2023-05-21T05:04:13.967Z,230.16
2023-05-21T05:05:14.009Z,230.70
2023-05-21T05:06:14.032Z,228.55
2023-05-21T05:07:14.090Z,232.12
2023-05-21T05:08:16.050Z,229.70
2023-05-21T05:09:14.163Z,226.59
2023-05-21T05:10:14.254Z,229.18
2023-05-21T05:11:14.292Z,231.97
2023-05-21T05:12:14.465Z,231.65
2023-05-21T05:13:14.346Z,231.31
2023-05-21T05:14:14.377Z,234.49
2023-05-21T05:15:14.407Z,236.53
2023-05-21T05:16:14.466Z,238.21
2023-05-21T05:17:14.458Z,244.73
2023-05-21T05:18:14.489Z,242.15
2023-05-21T05:19:14.569Z,243.55
2023-05-21T05:20:14.576Z,246.46
2023-05-21T05:21:14.636Z,250.00
2023-05-21T05:22:14.807Z,249.69
2023-05-21T05:23:14.635Z,249.99
2023-05-21T05:24:14.678Z,249.50
2023-05-21T05:25:14.734Z,248.02
2023-05-21T05:26:14.781Z,249.36
2023-05-21T05:27:14.818Z,250.00
2023-05-21T05:28:14.818Z,248.64
2023-05-21T05:29:14.860Z,249.60
2023-05-21T05:30:14.900Z,250.00
2023-05-21T05:31:15.145Z,250.00
2023-05-21T05:32:14.963Z,249.36
2023-05-21T05:33:14.959Z,249.38
2023-05-21T05:34:15.012Z,249.08
2023-05-21T05:35:15.029Z,249.69
2023-05-21T05:36:15.101Z,248.41
2023-05-21T05:37:15.112Z,248.99
2023-05-21T05:38:15.152Z,249.68
2023-05-21T05:39:15.206Z,249.01
2023-05-21T05:40:15.275Z,249.55
2023-05-21T05:41:15.282Z,250.11
2023-05-21T05:42:15.322Z,249.84
2023-05-21T05:43:15.334Z,248.38
2023-05-21T05:44:15.398Z,247.93
2023-05-21T05:45:15.425Z,249.49
2023-05-21T05:46:15.538Z,248.78
2023-05-21T05:47:15.499Z,247.72
2023-05-21T05:48:15.560Z,250.00
2023-05-21T05:49:15.669Z,249.35
2023-05-21T05:50:15.651Z,250.00
2023-05-21T05:51:15.682Z,249.84
2023-05-21T05:52:15.753Z,249.53
2023-05-21T05:53:15.771Z,249.09
2023-05-21T05:54:15.852Z,246.51
2023-05-21T05:55:15.870Z,245.87
2023-05-21T05:56:15.918Z,246.79
2023-05-21T05:57:15.949Z,247.24
2023-05-21T05:58:15.993Z,245.57
2023-05-21T05:59:16.035Z,249.79
2023-05-21T06:00:16.155Z,250.00
2023-05-21T06:01:16.112Z,248.32
2023-05-21T06:02:16.160Z,249.49
2023-05-21T06:03:16.346Z,248.70
2023-05-21T06:04:16.277Z,250.18
2023-05-21T06:05:16.266Z,248.96
2023-05-21T06:06:16.395Z,247.83
2023-05-21T06:07:16.283Z,248.32
2023-05-21T06:08:16.293Z,246.56
2023-05-21T06:09:16.316Z,246.67
2023-05-21T06:10:16.337Z,248.09
2023-05-21T06:11:16.381Z,246.79
2023-05-21T06:12:16.390Z,248.15
2023-05-21T06:13:16.384Z,247.53
2023-05-21T06:14:16.415Z,249.36
2023-05-21T06:15:16.480Z,248.05
2023-05-21T06:16:16.498Z,248.53
2023-05-21T06:17:16.520Z,247.64
2023-05-21T06:18:16.580Z,248.42
2023-05-21T06:19:16.648Z,250.00
2023-05-21T06:20:16.615Z,248.98
2023-05-21T06:21:16.680Z,249.37
2023-05-21T06:22:16.682Z,248.55
2023-05-21T06:23:16.706Z,249.16
2023-05-21T06:24:16.718Z,249.00
2023-05-21T06:25:16.724Z,249.00
2023-05-21T06:26:16.784Z,248.31
2023-05-21T06:27:16.811Z,249.76
2023-05-21T06:28:16.858Z,247.94
2023-05-21T06:29:16.913Z,249.38
2023-05-21T06:30:16.912Z,248.73
2023-05-21T06:31:16.953Z,248.90
2023-05-21T06:32:17.146Z,247.76
2023-05-21T06:33:17.025Z,248.84
2023-05-21T06:34:16.984Z,247.05
2023-05-21T06:35:16.972Z,248.72
2023-05-21T06:36:17.013Z,245.94
2023-05-21T06:37:17.033Z,245.86
2023-05-21T06:38:17.052Z,248.52
2023-05-21T06:39:17.055Z,246.80
2023-05-21T06:40:17.079Z,248.39
2023-05-21T06:41:17.098Z,246.68
2023-05-21T06:42:17.142Z,246.91
2023-05-21T06:43:17.136Z,248.04
2023-05-21T06:44:17.156Z,249.46
2023-05-21T06:45:17.168Z,246.62
2023-05-21T06:46:17.202Z,247.16
2023-05-21T06:47:17.203Z,249.67
2023-05-21T06:48:17.207Z,249.51
2023-05-21T06:49:17.241Z,249.18
2023-05-21T06:50:17.267Z,248.96
2023-05-21T06:51:17.283Z,247.78
2023-05-21T06:52:17.277Z,249.11
2023-05-21T06:53:17.307Z,249.13
2023-05-21T06:54:17.351Z,246.87
2023-05-21T06:55:17.427Z,248.98
2023-05-21T06:56:17.385Z,250.00
2023-05-21T06:57:17.442Z,248.55
2023-05-21T06:58:17.458Z,248.90
2023-05-21T06:59:17.478Z,248.66
2023-05-21T07:00:17.510Z,249.57
2023-05-21T07:01:17.593Z,248.12
2023-05-21T07:02:17.605Z,248.89
2023-05-21T07:03:17.680Z,249.68
2023-05-21T07:04:17.692Z,248.00
2023-05-21T07:05:17.652Z,247.65
2023-05-21T07:06:17.705Z,248.31
2023-05-21T07:07:17.736Z,249.99
2023-05-21T07:08:17.753Z,247.83
2023-05-21T07:09:17.828Z,247.37
2023-05-21T07:10:17.885Z,245.00
2023-05-21T07:11:17.914Z,247.12
2023-05-21T07:12:17.929Z,247.89
2023-05-21T07:13:17.987Z,245.14
2023-05-21T07:14:18.010Z,245.97
2023-05-21T07:15:18.064Z,246.65
2023-05-21T07:16:18.261Z,245.57
2023-05-21T07:17:18.137Z,246.39
2023-05-21T07:18:18.163Z,245.83
2023-05-21T07:19:18.219Z,245.18
2023-05-21T07:20:18.224Z,245.32
2023-05-21T07:21:18.268Z,244.46
2023-05-21T07:22:18.306Z,245.61
2023-05-21T07:23:18.446Z,243.20
2023-05-21T07:24:18.428Z,244.13
2023-05-21T07:25:18.463Z,244.57
2023-05-21T07:26:18.628Z,244.29
2023-05-21T07:28:19.522Z,244.74
2023-05-21T07:29:18.552Z,244.78
2023-05-21T07:30:18.487Z,245.03
2023-05-21T07:31:18.621Z,244.72
2023-05-21T07:32:18.538Z,246.06
2023-05-21T07:33:18.526Z,245.66
2023-05-21T07:34:18.575Z,246.40
2023-05-21T07:35:18.576Z,244.68
2023-05-21T07:36:18.476Z,245.63
2023-05-21T07:37:18.670Z,246.55
2023-05-21T07:38:18.456Z,245.34
2023-05-21T07:39:18.450Z,245.83
2023-05-21T07:40:18.482Z,247.57
2023-05-21T07:41:18.775Z,245.68
2023-05-21T07:42:18.617Z,246.17
2023-05-21T07:43:18.657Z,245.94
2023-05-21T07:44:18.636Z,247.65
2023-05-21T07:45:18.650Z,248.90
2023-05-21T07:46:18.691Z,248.09
2023-05-21T07:47:18.715Z,245.53
2023-05-21T07:48:18.688Z,246.14
2023-05-21T07:49:18.724Z,247.46
2023-05-21T07:50:18.733Z,246.97
2023-05-21T07:51:18.754Z,246.78
2023-05-21T07:52:18.922Z,246.67
2023-05-21T07:53:18.868Z,246.70
2023-05-21T07:54:18.916Z,247.82
2023-05-21T07:55:18.973Z,248.12
2023-05-21T07:56:19.043Z,247.46
2023-05-21T07:57:19.047Z,246.52
2023-05-21T07:58:19.059Z,246.06
2023-05-21T07:59:19.039Z,245.99
2023-05-21T08:00:19.076Z,245.85
2023-05-21T08:01:19.078Z,244.19
2023-05-21T08:02:19.144Z,243.22
2023-05-21T08:03:19.231Z,243.30
2023-05-21T08:04:19.299Z,241.69
2023-05-21T08:05:19.154Z,241.77
2023-05-21T08:06:19.157Z,239.89
2023-05-21T08:07:19.188Z,237.87
2023-05-21T08:08:19.207Z,236.85
2023-05-21T08:09:19.246Z,236.89
2023-05-21T08:10:19.633Z,236.35
2023-05-21T08:11:19.360Z,234.54
2023-05-21T08:12:19.381Z,233.85
2023-05-21T08:13:19.418Z,233.24
2023-05-21T08:14:19.443Z,233.98
2023-05-21T08:15:19.484Z,232.32
2023-05-21T08:16:19.561Z,232.94
2023-05-21T08:17:19.536Z,232.59
2023-05-21T08:18:19.594Z,231.90
2023-05-21T08:19:19.613Z,230.51
2023-05-21T08:20:19.668Z,229.89
2023-05-21T08:21:19.690Z,230.48
2023-05-21T08:22:19.762Z,230.39
2023-05-21T08:23:19.786Z,229.00
2023-05-21T08:24:19.931Z,227.01
2023-05-21T08:25:19.847Z,226.57
2023-05-21T08:26:19.886Z,225.69
2023-05-21T08:27:19.882Z,225.77
2023-05-21T08:28:19.911Z,223.61
2023-05-21T08:29:19.923Z,223.77
2023-05-21T08:30:19.941Z,222.49
2023-05-21T08:31:19.994Z,222.25
2023-05-21T08:32:20.124Z,222.29
2023-05-21T08:33:21.339Z,219.61
2023-05-21T08:34:20.035Z,219.96
2023-05-21T08:35:20.073Z,219.81
2023-05-21T08:36:20.126Z,218.60
2023-05-21T08:37:20.225Z,218.18
2023-05-21T08:38:20.193Z,218.52
2023-05-21T08:39:20.235Z,217.35
2023-05-21T08:40:20.284Z,216.92
2023-05-21T08:41:20.332Z,216.93
2023-05-21T08:42:32.845Z,215.68
2023-05-21T08:43:21.303Z,215.70
2023-05-21T08:44:20.315Z,211.54
2023-05-21T08:45:20.295Z,210.20
2023-05-21T08:46:20.320Z,208.31
2023-05-21T08:47:20.334Z,207.48
2023-05-21T08:48:20.268Z,206.90
2023-05-21T08:49:20.258Z,205.58
2023-05-21T08:50:20.337Z,202.31
2023-05-21T08:51:20.292Z,203.58
2023-05-21T08:52:20.234Z,202.46
2023-05-21T08:53:28.221Z,202.14
2023-05-21T08:54:21.229Z,202.14
2023-05-21T08:55:20.238Z,199.85
2023-05-21T08:56:20.295Z,198.27
2023-05-21T08:57:20.362Z,197.08
2023-05-21T08:58:20.189Z,195.65
2023-05-21T08:59:20.207Z,195.00
2023-05-21T09:00:20.202Z,194.16
2023-05-21T09:01:20.307Z,193.31
2023-05-21T09:02:20.173Z,191.27
2023-05-21T09:03:20.239Z,189.62
2023-05-21T09:04:21.719Z,187.69
2023-05-21T09:05:20.140Z,185.84
2023-05-21T09:06:20.168Z,186.33
2023-05-21T09:07:20.181Z,185.00
2023-05-21T09:08:20.198Z,185.59
2023-05-21T09:09:20.267Z,181.67
2023-05-21T09:10:20.373Z,179.95
2023-05-21T09:11:20.350Z,179.70
2023-05-21T09:12:20.347Z,179.98
2023-05-21T09:13:20.376Z,179.02
2023-05-21T09:14:20.411Z,177.31
2023-05-21T09:15:20.451Z,176.15
2023-05-21T09:16:20.519Z,176.25
2023-05-21T09:17:20.544Z,176.73
2023-05-21T09:18:20.564Z,175.81
2023-05-21T09:19:20.654Z,173.23
2023-05-21T09:20:20.709Z,170.46
2023-05-21T09:21:20.674Z,169.26
2023-05-21T09:22:20.705Z,168.69
2023-05-21T09:23:20.729Z,168.93
2023-05-21T09:24:20.764Z,168.09
2023-05-21T09:25:20.787Z,166.35
2023-05-21T09:26:20.860Z,164.59
2023-05-21T09:27:20.877Z,163.67
2023-05-21T09:28:20.915Z,163.28
2023-05-21T09:29:20.983Z,160.27
2023-05-21T09:30:24.788Z,157.26
2023-05-21T09:31:22.050Z,157.32
2023-05-21T09:32:20.952Z,157.28
2023-05-21T09:33:20.960Z,157.15
2023-05-21T09:34:21.024Z,153.80
2023-05-21T09:35:20.938Z,152.53
2023-05-21T09:36:20.937Z,152.97
2023-05-21T09:38:21.937Z,149.08
2023-05-21T09:39:20.891Z,149.14
2023-05-21T09:40:20.905Z,145.75
2023-05-21T09:41:22.197Z,143.66
2023-05-21T09:42:20.911Z,142.11
2023-05-21T09:43:20.860Z,141.04
2023-05-21T09:44:20.851Z,140.25
2023-05-21T09:45:20.853Z,136.49
2023-05-21T09:46:20.956Z,138.53
2023-05-21T09:47:20.874Z,137.00
2023-05-21T09:48:20.838Z,137.27
2023-05-21T09:49:20.830Z,136.34
2023-05-21T09:50:20.810Z,134.88
2023-05-21T09:51:20.822Z,133.11
2023-05-21T09:52:20.826Z,131.43
2023-05-21T09:53:20.854Z,131.74
2023-05-21T09:54:20.899Z,131.87
2023-05-21T09:55:20.934Z,130.67
2023-05-21T09:56:20.967Z,129.77
2023-05-21T09:57:20.984Z,129.27
2023-05-21T09:58:21.161Z,129.08
2023-05-21T09:59:21.198Z,128.69
2023-05-21T10:00:21.167Z,128.01
2023-05-21T10:01:21.201Z,127.95
2023-05-21T10:02:21.214Z,126.72
2023-05-21T10:03:21.266Z,127.71
2023-05-21T10:04:21.281Z,126.97
2023-05-21T10:05:21.269Z,128.50
2023-05-21T10:06:21.275Z,128.30
2023-05-21T10:07:21.281Z,129.01
2023-05-21T10:08:21.292Z,129.33
2023-05-21T10:09:21.454Z,130.20
2023-05-21T10:10:21.385Z,129.97
2023-05-21T10:11:21.410Z,131.37
2023-05-21T10:12:21.449Z,129.43
2023-05-21T10:13:21.489Z,130.70
2023-05-21T10:14:21.528Z,131.90
2023-05-21T10:15:21.582Z,131.31
2023-05-21T10:16:21.672Z,130.95
2023-05-21T10:17:21.680Z,130.48
2023-05-21T10:18:21.706Z,131.97
2023-05-21T10:19:21.790Z,131.11
2023-05-21T10:20:21.781Z,131.90
2023-05-21T10:21:21.844Z,130.96
2023-05-21T10:22:22.379Z,133.53
2023-05-21T10:23:21.890Z,132.62
2023-05-21T10:24:21.898Z,131.77
2023-05-21T10:25:21.883Z,131.16
2023-05-21T10:26:21.933Z,129.43
2023-05-21T10:27:21.947Z,129.16
2023-05-21T10:28:22.011Z,129.43
2023-05-21T10:29:22.070Z,128.92
2023-05-21T10:30:22.078Z,128.87
2023-05-21T10:31:22.142Z,128.64
2023-05-21T10:32:22.197Z,126.26
2023-05-21T10:33:22.286Z,126.42
2023-05-21T10:34:22.249Z,126.81
2023-05-21T10:35:22.267Z,126.76
2023-05-21T10:36:22.325Z,127.02
2023-05-21T10:37:22.347Z,127.54
2023-05-21T10:38:22.411Z,126.18
2023-05-21T10:39:22.441Z,124.78
2023-05-21T10:40:22.481Z,122.69
2023-05-21T10:41:22.534Z,121.71
2023-05-21T10:42:22.557Z,120.21
2023-05-21T10:43:22.566Z,120.52
2023-05-21T10:44:22.583Z,119.65
2023-05-21T10:45:22.732Z,118.31
2023-05-21T10:46:22.718Z,117.86
2023-05-21T10:47:22.710Z,116.88
2023-05-21T10:48:22.778Z,113.98
2023-05-21T10:49:22.825Z,113.57
2023-05-21T10:50:22.859Z,112.52
2023-05-21T10:51:23.080Z,113.25
2023-05-21T10:52:22.917Z,111.02
2023-05-21T10:53:22.983Z,110.26
2023-05-21T10:54:23.027Z,111.00
2023-05-21T10:55:23.071Z,109.43
2023-05-21T10:56:23.101Z,108.63
2023-05-21T10:57:23.136Z,106.65
2023-05-21T10:58:23.169Z,106.02
2023-05-21T10:59:23.220Z,107.28
2023-05-21T11:00:23.250Z,105.65
2023-05-21T11:01:23.288Z,103.98
2023-05-21T11:02:23.323Z,101.21
2023-05-21T11:03:23.481Z,100.83
2023-05-21T11:04:23.362Z,101.27
2023-05-21T11:05:23.427Z,100.09
2023-05-21T11:06:23.483Z,99.41
2023-05-21T11:07:23.517Z,96.71
2023-05-21T11:08:23.570Z,97.94
2023-05-21T11:09:23.582Z,99.03
2023-05-21T11:10:23.610Z,98.47
2023-05-21T11:11:23.802Z,97.88
2023-05-21T11:12:23.715Z,97.36
2023-05-21T11:13:23.762Z,95.63
2023-05-21T11:14:23.747Z,95.30
2023-05-21T11:15:23.772Z,93.18
2023-05-21T11:16:23.832Z,91.96
2023-05-21T11:17:23.902Z,90.15
2023-05-21T11:18:23.850Z,91.71
2023-05-21T11:19:23.897Z,91.48
2023-05-21T11:20:23.884Z,90.93
2023-05-21T11:21:24.024Z,88.97
2023-05-21T11:22:23.967Z,88.20
2023-05-21T11:23:24.124Z,87.45
2023-05-21T11:24:24.038Z,87.49
2023-05-21T11:25:24.106Z,86.40
2023-05-21T11:26:24.125Z,85.87
2023-05-21T11:27:24.138Z,84.27
2023-05-21T11:28:24.157Z,83.62
2023-05-21T11:29:24.194Z,82.47
2023-05-21T11:30:24.226Z,83.00
2023-05-21T11:31:24.305Z,80.60
2023-05-21T11:32:24.408Z,79.20
2023-05-21T11:33:24.381Z,77.83
2023-05-21T11:34:24.407Z,77.22
2023-05-21T11:35:24.482Z,76.83
2023-05-21T11:36:24.529Z,76.92
2023-05-21T11:37:24.568Z,76.61
2023-05-21T11:38:24.600Z,77.11
2023-05-21T11:39:24.652Z,76.59
2023-05-21T11:40:24.687Z,74.34
2023-05-21T11:41:24.751Z,71.96
2023-05-21T11:42:24.783Z,69.99
2023-05-21T11:43:24.828Z,69.12
2023-05-21T11:44:24.884Z,70.00
2023-05-21T11:45:24.918Z,69.35
2023-05-21T11:46:25.074Z,69.27
2023-05-21T11:47:25.064Z,68.94
2023-05-21T11:48:27.089Z,69.81
2023-05-21T11:49:25.064Z,69.41
2023-05-21T11:50:25.095Z,69.37
2023-05-21T11:51:25.138Z,68.23
2023-05-21T11:52:25.191Z,68.78
2023-05-21T11:53:25.222Z,67.73
2023-05-21T11:54:25.266Z,67.23
2023-05-21T11:55:25.323Z,66.53
2023-05-21T11:56:25.347Z,66.66
2023-05-21T11:57:25.365Z,67.28
2023-05-21T11:58:25.470Z,66.85
2023-05-21T11:59:25.527Z,65.42
2023-05-21T12:00:25.560Z,63.70
2023-05-21T12:01:25.727Z,63.79
2023-05-21T12:02:25.718Z,62.13
2023-05-21T12:03:25.661Z,61.33
2023-05-21T12:04:25.571Z,61.68
2023-05-21T12:05:25.586Z,62.55
2023-05-21T12:06:25.670Z,59.31
2023-05-21T12:07:25.650Z,60.14
2023-05-21T12:08:25.891Z,57.98
2023-05-21T12:09:25.736Z,59.42
2023-05-21T12:10:25.794Z,58.71
2023-05-21T12:11:25.837Z,60.92
2023-05-21T12:12:25.890Z,59.83
2023-05-21T12:13:25.887Z,60.26
2023-05-21T12:14:25.983Z,58.47
2023-05-21T12:15:26.171Z,54.90
2023-05-21T12:16:26.084Z,56.43
2023-05-21T12:17:26.096Z,55.37
2023-05-21T12:18:26.062Z,55.31
2023-05-21T12:19:26.235Z,55.71
2023-05-21T12:20:26.192Z,56.65
2023-05-21T12:21:26.196Z,57.51
2023-05-21T12:22:26.255Z,57.78
2023-05-21T12:23:26.265Z,56.53
2023-05-21T12:24:26.308Z,57.67
2023-05-21T12:25:26.354Z,58.40
2023-05-21T12:26:26.384Z,60.48
2023-05-21T12:27:26.443Z,58.08
2023-05-21T12:28:26.485Z,56.13
2023-05-21T12:29:26.511Z,56.05
2023-05-21T12:30:26.578Z,54.05
2023-05-21T12:31:26.632Z,54.02
2023-05-21T12:32:26.668Z,55.04
2023-05-21T12:33:26.672Z,55.86